createdAt,value
2018-08-13T00:04:25.662Z,19.33
2018-08-13T00:09:24.203Z,19.28
2018-08-13T00:14:18.732Z,19.18
2018-08-13T00:19:13.226Z,19.14
2018-08-13T00:24:07.907Z,19.13
2018-08-13T00:29:02.445Z,19.11
2018-08-13T00:33:56.940Z,19.04
2018-08-13T00:38:51.549Z,18.99
2018-08-13T00:43:46.084Z,18.93
2018-08-13T00:48:40.608Z,18.85
2018-08-13T00:53:35.092Z,18.87
2018-08-13T00:58:29.656Z,18.76
2018-08-13T01:03:24.132Z,18.68
2018-08-13T01:08:18.730Z,18.60
2018-08-13T01:13:13.265Z,18.61
2018-08-13T01:18:07.812Z,18.54
2018-08-13T01:23:02.345Z,18.60
2018-08-13T01:27:56.824Z,18.57
2018-08-13T01:32:51.303Z,18.45
2018-08-13T01:37:45.823Z,18.45
2018-08-13T01:42:40.308Z,18.63
2018-08-13T01:47:34.773Z,18.61
2018-08-13T01:52:29.260Z,18.46
2018-08-13T01:57:23.888Z,18.38
2018-08-13T02:02:18.432Z,18.34
2018-08-13T02:07:13.296Z,18.32
2018-08-13T02:12:08.458Z,18.30
2018-08-13T02:17:03.032Z,18.29
2018-08-13T02:21:57.760Z,18.30
2018-08-13T02:26:52.445Z,18.28
2018-08-13T02:31:47.129Z,18.34
2018-08-13T02:36:41.701Z,18.23
2018-08-13T02:41:36.392Z,18.16
2018-08-13T02:46:30.941Z,18.12
2018-08-13T02:51:25.432Z,18.17
2018-08-13T02:56:20.025Z,18.24
2018-08-13T03:01:14.518Z,18.32
2018-08-13T03:06:09.065Z,18.39
2018-08-13T03:11:03.520Z,18.27
2018-08-13T03:15:58.021Z,18.19
2018-08-13T03:20:52.528Z,18.18
2018-08-13T03:25:47.131Z,18.16
2018-08-13T03:30:41.745Z,18.18
2018-08-13T03:35:36.265Z,18.22
2018-08-13T03:40:30.801Z,18.21
2018-08-13T03:45:25.381Z,18.24
2018-08-13T03:50:19.944Z,18.26
2018-08-13T03:55:14.536Z,18.23
2018-08-13T04:00:13.636Z,18.28
2018-08-13T04:05:09.260Z,18.25
2018-08-13T04:10:04.041Z,18.29
2018-08-13T04:14:58.547Z,18.44
2018-08-13T04:19:53.094Z,18.21
2018-08-13T04:24:47.674Z,18.17
2018-08-13T04:29:42.249Z,18.04
2018-08-13T04:34:36.784Z,18.18
2018-08-13T04:39:31.281Z,18.53
2018-08-13T04:44:25.881Z,18.92
2018-08-13T04:49:20.384Z,19.22
2018-08-13T04:54:14.916Z,19.58
2018-08-13T04:59:09.489Z,20.26
2018-08-13T05:04:04.056Z,20.38
2018-08-13T05:08:58.649Z,20.78
2018-08-13T05:13:53.196Z,21.10
2018-08-13T05:18:47.705Z,21.85
2018-08-13T05:23:42.312Z,21.68
2018-08-13T05:28:36.888Z,21.20
2018-08-13T05:33:31.910Z,21.10
2018-08-13T05:38:26.629Z,21.12
2018-08-13T05:43:21.329Z,21.10
2018-08-13T05:48:16.040Z,21.21
2018-08-13T05:53:10.643Z,21.32
2018-08-13T05:58:05.420Z,21.35
2018-08-13T06:03:00.001Z,21.52
2018-08-13T06:07:54.632Z,21.58
2018-08-13T06:12:49.345Z,21.67
2018-08-13T06:17:43.978Z,22.81
2018-08-13T06:22:39.461Z,22.78
2018-08-13T06:27:34.399Z,22.81
2018-08-13T06:32:30.113Z,22.56
2018-08-13T06:37:24.896Z,22.87
2018-08-13T06:42:19.462Z,23.22
2018-08-13T06:47:13.937Z,23.87
2018-08-13T06:52:08.460Z,24.32
2018-08-13T06:57:03.293Z,24.69
2018-08-13T07:01:57.781Z,24.81
2018-08-13T07:06:52.296Z,24.79
2018-08-13T07:11:46.810Z,24.79
2018-08-13T07:16:41.300Z,24.96
2018-08-13T07:26:50.777Z,25.50
2018-08-13T07:31:45.216Z,25.08
2018-08-13T07:36:39.768Z,25.16
2018-08-13T07:41:34.237Z,25.46
2018-08-13T07:46:29.680Z,25.65
2018-08-13T07:51:25.623Z,26.15
2018-08-13T07:56:41.108Z,26.28
2018-08-13T08:01:35.580Z,26.25
2018-08-13T08:06:30.728Z,26.51
2018-08-13T08:11:25.821Z,26.51
2018-08-13T08:16:57.173Z,25.86
2018-08-13T08:21:51.755Z,25.72
2018-08-13T08:26:46.698Z,25.90
2018-08-13T08:31:41.380Z,25.78
2018-08-13T08:36:36.020Z,26.44
2018-08-13T08:41:30.747Z,26.68
2018-08-13T08:46:25.427Z,26.82
2018-08-13T08:51:19.888Z,27.17
2018-08-13T08:56:14.336Z,27.43
2018-08-13T09:01:08.808Z,28.01
2018-08-13T09:06:04.693Z,28.43
2018-08-13T09:10:59.356Z,28.50
2018-08-13T09:15:54.347Z,28.65
2018-08-13T09:21:05.733Z,28.75
2018-08-13T09:27:16.187Z,28.33
2018-08-13T09:32:30.009Z,28.22
2018-08-13T09:37:26.313Z,28.43
2018-08-13T09:42:24.584Z,28.45
2018-08-13T09:47:27.139Z,28.61
2018-08-13T09:52:22.510Z,28.44
2018-08-13T09:57:16.962Z,28.12
2018-08-13T10:02:12.236Z,27.64
2018-08-13T10:07:07.180Z,27.40
2018-08-13T10:12:02.375Z,26.90
2018-08-13T10:16:57.408Z,26.52
2018-08-13T10:21:51.880Z,26.78
2018-08-13T10:26:46.847Z,26.68
2018-08-13T10:31:41.392Z,26.67
2018-08-13T10:36:35.837Z,26.42
2018-08-13T10:41:30.329Z,26.18
2018-08-13T10:46:25.364Z,25.98
2018-08-13T10:51:20.273Z,25.95
2018-08-13T10:56:14.886Z,25.87
2018-08-13T11:01:09.788Z,25.94
2018-08-13T11:06:04.233Z,25.55
2018-08-13T11:10:58.722Z,25.58
2018-08-13T11:15:53.199Z,25.47
2018-08-13T11:20:47.624Z,25.30
2018-08-13T11:25:42.377Z,25.17
2018-08-13T11:30:37.047Z,25.22
2018-08-13T11:35:31.601Z,25.24
2018-08-13T11:40:26.050Z,25.21
2018-08-13T11:45:20.932Z,25.05
2018-08-13T11:50:17.881Z,24.79
2018-08-13T11:55:12.722Z,24.61
2018-08-13T12:00:10.605Z,24.37
2018-08-13T12:05:06.796Z,24.41
2018-08-13T12:10:01.378Z,24.35
2018-08-13T12:15:02.962Z,24.58
2018-08-13T12:19:57.676Z,24.57
2018-08-13T12:25:12.040Z,24.44
2018-08-13T12:30:09.917Z,24.36
2018-08-13T12:35:06.557Z,24.22
2018-08-13T12:40:01.293Z,24.11
2018-08-13T12:44:55.864Z,24.11
2018-08-13T12:49:50.423Z,24.04
2018-08-13T12:54:45.025Z,23.67
2018-08-13T12:59:39.605Z,23.43
2018-08-13T13:04:34.360Z,23.27
2018-08-13T13:09:28.961Z,23.13
2018-08-13T13:14:23.651Z,23.02
2018-08-13T13:19:18.249Z,23.04
2018-08-13T13:24:12.894Z,23.11
2018-08-13T13:29:07.610Z,23.16
2018-08-13T13:34:02.285Z,23.44
2018-08-13T13:38:57.220Z,23.49
2018-08-13T13:43:51.853Z,23.65
2018-08-13T13:48:46.739Z,23.61
2018-08-13T13:53:41.627Z,23.75
2018-08-13T13:58:36.246Z,23.74
2018-08-13T14:03:31.400Z,23.89
2018-08-13T14:08:31.709Z,24.00
2018-08-13T14:13:26.287Z,24.32
2018-08-13T14:24:25.536Z,24.64
2018-08-13T14:29:20.153Z,24.76
2018-08-13T14:34:14.901Z,24.69
2018-08-13T14:39:11.965Z,24.61
2018-08-13T14:44:06.716Z,24.74
2018-08-13T14:49:01.268Z,24.59
2018-08-13T14:53:55.898Z,24.52
2018-08-13T14:58:50.484Z,24.52
2018-08-13T15:03:45.311Z,24.47
2018-08-13T15:08:40.349Z,24.45
2018-08-13T15:13:35.116Z,24.37
2018-08-13T15:18:29.925Z,24.40
2018-08-13T15:23:33.185Z,24.57
2018-08-13T15:28:27.904Z,24.68
2018-08-13T15:33:22.620Z,24.74
2018-08-13T15:38:17.093Z,24.81
2018-08-13T15:43:11.740Z,24.88
2018-08-13T15:48:06.648Z,24.84
2018-08-13T15:53:01.161Z,24.82
2018-08-13T15:57:55.688Z,24.58
2018-08-13T16:02:50.447Z,24.42
2018-08-13T16:07:45.356Z,24.23
2018-08-13T16:12:40.037Z,24.19
2018-08-13T16:17:34.773Z,24.25
2018-08-13T16:22:29.413Z,24.32
2018-08-13T16:27:23.981Z,24.53
2018-08-13T16:32:18.521Z,24.66
2018-08-13T16:37:13.121Z,24.94
2018-08-13T16:42:07.726Z,25.04
2018-08-13T16:47:02.313Z,25.00
2018-08-13T16:51:56.877Z,25.12
2018-08-13T16:56:51.453Z,25.06
2018-08-13T17:01:46.026Z,24.74
2018-08-13T17:06:40.683Z,24.66
2018-08-13T17:11:35.640Z,24.70
2018-08-13T17:16:30.287Z,24.70
2018-08-13T17:21:24.841Z,24.64
2018-08-13T17:26:19.545Z,24.56
2018-08-13T17:31:14.192Z,24.28
2018-08-13T17:36:08.806Z,24.18
2018-08-13T17:41:03.437Z,23.91
2018-08-13T17:45:58.017Z,23.67
2018-08-13T17:50:52.538Z,23.58
2018-08-13T17:55:47.169Z,23.52
2018-08-13T18:00:41.724Z,23.47
2018-08-13T18:05:36.254Z,23.43
2018-08-13T18:10:33.704Z,23.28
2018-08-13T18:15:28.379Z,23.23
2018-08-13T18:20:22.954Z,22.48
2018-08-13T18:25:17.630Z,21.91
2018-08-13T18:30:16.683Z,21.41
2018-08-13T18:35:11.618Z,21.02
2018-08-13T18:40:10.174Z,20.63
2018-08-13T18:45:05.804Z,20.04
2018-08-13T18:50:00.418Z,19.88
2018-08-13T18:54:54.941Z,19.47
2018-08-13T18:59:49.505Z,19.53
2018-08-13T19:04:44.076Z,19.58
2018-08-13T19:09:38.560Z,19.58
2018-08-13T19:14:33.110Z,19.50
2018-08-13T19:19:27.641Z,19.43
2018-08-13T19:24:22.245Z,19.25
2018-08-13T19:29:16.852Z,19.21
2018-08-13T19:34:11.552Z,19.20
2018-08-13T19:39:12.065Z,19.13
2018-08-13T19:44:06.660Z,18.93
2018-08-13T19:49:01.197Z,18.77
2018-08-13T19:53:55.700Z,18.76
2018-08-13T19:58:50.225Z,18.82
2018-08-13T20:03:44.980Z,18.81
2018-08-13T20:08:39.567Z,18.86
2018-08-13T20:13:34.135Z,18.87
2018-08-13T20:18:28.661Z,18.90
2018-08-13T20:23:23.201Z,18.89
2018-08-13T20:28:17.712Z,18.83
2018-08-13T20:33:12.230Z,18.81
2018-08-13T20:38:07.241Z,18.79
2018-08-13T20:43:01.768Z,18.74
2018-08-13T20:47:56.287Z,18.71
2018-08-13T20:52:52.725Z,18.70
2018-08-13T20:57:48.604Z,18.78
2018-08-13T21:02:44.097Z,18.75
2018-08-13T21:07:38.616Z,18.88
2018-08-13T21:12:33.169Z,18.89
2018-08-13T21:17:27.710Z,18.97
2018-08-13T21:22:22.368Z,18.88
2018-08-13T21:27:17.273Z,18.68
2018-08-13T21:32:11.789Z,18.64
2018-08-13T21:37:06.394Z,18.48
2018-08-13T21:42:00.978Z,18.56
2018-08-13T21:46:55.458Z,18.51
2018-08-13T21:51:50.021Z,18.42
2018-08-13T21:56:44.566Z,18.46
2018-08-13T22:01:44.405Z,18.38
2018-08-13T22:06:38.960Z,18.38
2018-08-13T22:11:33.440Z,18.46
2018-08-13T22:16:27.960Z,18.45
2018-08-13T22:21:22.455Z,18.52
2018-08-13T22:26:16.951Z,18.55
2018-08-13T22:31:12.303Z,18.70
2018-08-13T22:36:07.036Z,18.57
2018-08-13T22:41:01.505Z,18.63
2018-08-13T22:45:56.054Z,18.73
2018-08-13T22:50:50.551Z,18.68
2018-08-13T22:55:45.037Z,18.71
2018-08-13T23:00:39.541Z,18.67
2018-08-13T23:05:34.068Z,18.59
2018-08-13T23:10:28.528Z,18.58
2018-08-13T23:15:23.140Z,18.61
2018-08-13T23:20:28.281Z,18.63
2018-08-13T23:25:22.872Z,18.60
2018-08-13T23:30:17.492Z,18.63
2018-08-13T23:35:12.000Z,18.64
2018-08-13T23:40:07.573Z,18.67
2018-08-13T23:45:02.025Z,18.74
2018-08-13T23:49:56.650Z,18.71
2018-08-13T23:54:51.120Z,18.76
2018-08-13T23:59:45.589Z,18.74
